sensor_id;sensor_type;location;lat;lon;timestamp;P1;durP1;ratioP1;P2;durP2;ratioP2
4595;SDS011;2310;49.978;8.742;2023-11-21T00:00:43;5.33;;;1.97;;
4595;SDS011;2310;49.978;8.742;2023-11-21T00:04:44;8.73;;;2.50;;
4595;SDS011;2310;49.978;8.742;2023-11-21T00:08:46;6.00;;;2.17;;
4595;SDS011;2310;49.978;8.742;2023-11-21T00:12:47;4.83;;;2.20;;
4595;SDS011;2310;49.978;8.742;2023-11-21T00:16:49;4.77;;;1.67;;
4595;SDS011;2310;49.978;8.742;2023-11-21T00:20:50;8.07;;;2.20;;
4595;SDS011;2310;49.978;8.742;2023-11-21T00:24:52;4.97;;;1.90;;
4595;SDS011;2310;49.978;8.742;2023-11-21T00:28:53;6.60;;;2.50;;
4595;SDS011;2310;49.978;8.742;2023-11-21T00:32:54;6.17;;;2.13;;
4595;SDS011;2310;49.978;8.742;2023-11-21T00:36:56;5.90;;;2.10;;
4595;SDS011;2310;49.978;8.742;2023-11-21T00:40:57;4.73;;;2.17;;
4595;SDS011;2310;49.978;8.742;2023-11-21T00:44:59;4.80;;;2.27;;
4595;SDS011;2310;49.978;8.742;2023-11-21T00:49:00;3.50;;;1.70;;
4595;SDS011;2310;49.978;8.742;2023-11-21T00:53:02;6.40;;;2.40;;
4595;SDS011;2310;49.978;8.742;2023-11-21T00:57:03;7.37;;;2.37;;
4595;SDS011;2310;49.978;8.742;2023-11-21T01:01:04;5.00;;;2.07;;
4595;SDS011;2310;49.978;8.742;2023-11-21T01:05:06;6.67;;;2.20;;
4595;SDS011;2310;49.978;8.742;2023-11-21T01:09:09;5.87;;;2.30;;
4595;SDS011;2310;49.978;8.742;2023-11-21T01:13:10;6.90;;;2.13;;
4595;SDS011;2310;49.978;8.742;2023-11-21T01:17:11;7.00;;;2.27;;
4595;SDS011;2310;49.978;8.742;2023-11-21T01:21:13;5.63;;;2.13;;
4595;SDS011;2310;49.978;8.742;2023-11-21T01:25:14;7.10;;;2.20;;
4595;SDS011;2310;49.978;8.742;2023-11-21T01:29:17;5.83;;;2.63;;
4595;SDS011;2310;49.978;8.742;2023-11-21T01:33:18;5.77;;;2.13;;
4595;SDS011;2310;49.978;8.742;2023-11-21T01:37:19;4.47;;;2.50;;
4595;SDS011;2310;49.978;8.742;2023-11-21T01:41:22;5.00;;;2.40;;
4595;SDS011;2310;49.978;8.742;2023-11-21T01:45:23;5.33;;;2.40;;
4595;SDS011;2310;49.978;8.742;2023-11-21T01:49:27;3.90;;;2.30;;
4595;SDS011;2310;49.978;8.742;2023-11-21T01:53:28;3.93;;;2.20;;
4595;SDS011;2310;49.978;8.742;2023-11-21T01:57:30;5.17;;;3.00;;
4595;SDS011;2310;49.978;8.742;2023-11-21T02:01:32;4.93;;;2.37;;
4595;SDS011;2310;49.978;8.742;2023-11-21T02:05:33;7.23;;;2.87;;
4595;SDS011;2310;49.978;8.742;2023-11-21T02:09:35;6.13;;;3.23;;
4595;SDS011;2310;49.978;8.742;2023-11-21T02:13:38;6.03;;;3.00;;
4595;SDS011;2310;49.978;8.742;2023-11-21T02:17:42;6.13;;;2.70;;
4595;SDS011;2310;49.978;8.742;2023-11-21T02:21:56;7.33;;;2.73;;
4595;SDS011;2310;49.978;8.742;2023-11-21T02:25:54;7.83;;;3.67;;
4595;SDS011;2310;49.978;8.742;2023-11-21T02:29:56;4.40;;;2.40;;
4595;SDS011;2310;49.978;8.742;2023-11-21T02:33:57;5.80;;;2.90;;
4595;SDS011;2310;49.978;8.742;2023-11-21T02:37:58;4.37;;;2.50;;
4595;SDS011;2310;49.978;8.742;2023-11-21T02:42:00;6.00;;;3.47;;
4595;SDS011;2310;49.978;8.742;2023-11-21T02:46:01;6.13;;;3.13;;
4595;SDS011;2310;49.978;8.742;2023-11-21T02:50:02;6.23;;;4.00;;
4595;SDS011;2310;49.978;8.742;2023-11-21T02:54:05;7.23;;;3.90;;
4595;SDS011;2310;49.978;8.742;2023-11-21T02:58:09;5.37;;;3.70;;
4595;SDS011;2310;49.978;8.742;2023-11-21T03:02:10;7.40;;;3.80;;
4595;SDS011;2310;49.978;8.742;2023-11-21T03:06:11;6.70;;;3.90;;
4595;SDS011;2310;49.978;8.742;2023-11-21T03:10:13;5.37;;;3.87;;
4595;SDS011;2310;49.978;8.742;2023-11-21T03:14:14;5.70;;;4.00;;
4595;SDS011;2310;49.978;8.742;2023-11-21T03:18:16;7.57;;;4.70;;
4595;SDS011;2310;49.978;8.742;2023-11-21T03:22:17;8.40;;;4.50;;
4595;SDS011;2310;49.978;8.742;2023-11-21T03:26:18;6.53;;;4.03;;
4595;SDS011;2310;49.978;8.742;2023-11-21T03:30:20;7.40;;;5.40;;
4595;SDS011;2310;49.978;8.742;2023-11-21T03:34:27;10.70;;;4.77;;
4595;SDS011;2310;49.978;8.742;2023-11-21T03:38:29;9.20;;;5.17;;
4595;SDS011;2310;49.978;8.742;2023-11-21T03:42:30;8.03;;;6.73;;
4595;SDS011;2310;49.978;8.742;2023-11-21T03:46:31;7.23;;;5.50;;
4595;SDS011;2310;49.978;8.742;2023-11-21T03:50:33;5.87;;;4.53;;
4595;SDS011;2310;49.978;8.742;2023-11-21T03:54:34;8.13;;;5.73;;
4595;SDS011;2310;49.978;8.742;2023-11-21T03:58:35;8.60;;;4.47;;
4595;SDS011;2310;49.978;8.742;2023-11-21T04:02:37;7.80;;;3.70;;
4595;SDS011;2310;49.978;8.742;2023-11-21T04:06:38;5.50;;;3.50;;
4595;SDS011;2310;49.978;8.742;2023-11-21T04:10:39;5.40;;;3.40;;
4595;SDS011;2310;49.978;8.742;2023-11-21T04:14:41;7.13;;;4.70;;
4595;SDS011;2310;49.978;8.742;2023-11-21T04:18:42;5.37;;;3.93;;
4595;SDS011;2310;49.978;8.742;2023-11-21T04:22:44;6.03;;;3.90;;
4595;SDS011;2310;49.978;8.742;2023-11-21T04:26:46;5.70;;;3.90;;
4595;SDS011;2310;49.978;8.742;2023-11-21T04:30:48;4.80;;;2.73;;
4595;SDS011;2310;49.978;8.742;2023-11-21T04:34:49;5.40;;;3.07;;
4595;SDS011;2310;49.978;8.742;2023-11-21T04:38:50;4.10;;;2.53;;
4595;SDS011;2310;49.978;8.742;2023-11-21T04:42:52;4.63;;;1.80;;
4595;SDS011;2310;49.978;8.742;2023-11-21T04:46:53;4.27;;;2.60;;
4595;SDS011;2310;49.978;8.742;2023-11-21T04:50:54;4.53;;;2.80;;
4595;SDS011;2310;49.978;8.742;2023-11-21T04:54:56;5.33;;;3.10;;
4595;SDS011;2310;49.978;8.742;2023-11-21T04:58:59;4.00;;;1.90;;
4595;SDS011;2310;49.978;8.742;2023-11-21T05:03:00;3.50;;;2.13;;
4595;SDS011;2310;49.978;8.742;2023-11-21T05:07:06;5.30;;;2.17;;
4595;SDS011;2310;49.978;8.742;2023-11-21T05:11:08;6.80;;;2.13;;
4595;SDS011;2310;49.978;8.742;2023-11-21T05:15:13;4.80;;;1.97;;
4595;SDS011;2310;49.978;8.742;2023-11-21T05:19:15;3.93;;;1.50;;
4595;SDS011;2310;49.978;8.742;2023-11-21T05:23:17;3.93;;;1.97;;
4595;SDS011;2310;49.978;8.742;2023-11-21T05:27:18;3.70;;;1.80;;
4595;SDS011;2310;49.978;8.742;2023-11-21T05:31:20;6.00;;;2.60;;
4595;SDS011;2310;49.978;8.742;2023-11-21T05:35:21;5.27;;;2.43;;
4595;SDS011;2310;49.978;8.742;2023-11-21T05:39:23;5.03;;;2.83;;
4595;SDS011;2310;49.978;8.742;2023-11-21T05:43:25;4.70;;;3.00;;
4595;SDS011;2310;49.978;8.742;2023-11-21T05:47:26;7.00;;;3.03;;
4595;SDS011;2310;49.978;8.742;2023-11-21T05:51:29;6.00;;;3.97;;
4595;SDS011;2310;49.978;8.742;2023-11-21T05:55:31;6.60;;;4.70;;
4595;SDS011;2310;49.978;8.742;2023-11-21T05:59:32;8.00;;;5.77;;
4595;SDS011;2310;49.978;8.742;2023-11-21T06:03:34;8.50;;;4.97;;
4595;SDS011;2310;49.978;8.742;2023-11-21T06:07:36;6.20;;;4.50;;
4595;SDS011;2310;49.978;8.742;2023-11-21T06:11:38;8.40;;;6.97;;
4595;SDS011;2310;49.978;8.742;2023-11-21T06:15:40;8.87;;;6.33;;
4595;SDS011;2310;49.978;8.742;2023-11-21T06:19:42;7.20;;;5.47;;
4595;SDS011;2310;49.978;8.742;2023-11-21T06:23:43;8.57;;;6.27;;
4595;SDS011;2310;49.978;8.742;2023-11-21T06:27:46;7.20;;;5.17;;
4595;SDS011;2310;49.978;8.742;2023-11-21T06:31:49;8.17;;;6.13;;
4595;SDS011;2310;49.978;8.742;2023-11-21T06:35:50;8.60;;;6.07;;
4595;SDS011;2310;49.978;8.742;2023-11-21T06:39:52;8.07;;;6.10;;
4595;SDS011;2310;49.978;8.742;2023-11-21T06:43:54;9.70;;;6.47;;
4595;SDS011;2310;49.978;8.742;2023-11-21T06:47:56;8.20;;;6.40;;
4595;SDS011;2310;49.978;8.742;2023-11-21T06:51:57;9.60;;;6.47;;
4595;SDS011;2310;49.978;8.742;2023-11-21T06:55:59;8.70;;;6.27;;
4595;SDS011;2310;49.978;8.742;2023-11-21T07:00:02;10.07;;;7.23;;
4595;SDS011;2310;49.978;8.742;2023-11-21T07:04:04;13.20;;;7.93;;
4595;SDS011;2310;49.978;8.742;2023-11-21T07:08:07;11.00;;;8.00;;
4595;SDS011;2310;49.978;8.742;2023-11-21T07:12:09;13.10;;;7.70;;
4595;SDS011;2310;49.978;8.742;2023-11-21T07:16:10;11.23;;;8.80;;
4595;SDS011;2310;49.978;8.742;2023-11-21T07:20:12;12.00;;;8.57;;
4595;SDS011;2310;49.978;8.742;2023-11-21T07:24:15;12.93;;;10.00;;
4595;SDS011;2310;49.978;8.742;2023-11-21T07:28:17;14.37;;;11.10;;
4595;SDS011;2310;49.978;8.742;2023-11-21T07:32:18;13.80;;;11.80;;
4595;SDS011;2310;49.978;8.742;2023-11-21T07:36:20;17.90;;;12.33;;
4595;SDS011;2310;49.978;8.742;2023-11-21T07:40:22;18.50;;;12.40;;
4595;SDS011;2310;49.978;8.742;2023-11-21T07:44:23;17.70;;;10.87;;
4595;SDS011;2310;49.978;8.742;2023-11-21T07:48:25;17.07;;;11.67;;
4595;SDS011;2310;49.978;8.742;2023-11-21T07:52:27;16.77;;;10.27;;
4595;SDS011;2310;49.978;8.742;2023-11-21T07:56:28;12.47;;;8.93;;
4595;SDS011;2310;49.978;8.742;2023-11-21T08:00:29;16.33;;;10.97;;
4595;SDS011;2310;49.978;8.742;2023-11-21T08:04:32;19.30;;;9.23;;
4595;SDS011;2310;49.978;8.742;2023-11-21T08:08:35;12.80;;;6.63;;
4595;SDS011;2310;49.978;8.742;2023-11-21T08:12:37;11.13;;;8.57;;
4595;SDS011;2310;49.978;8.742;2023-11-21T08:16:39;11.83;;;7.50;;
4595;SDS011;2310;49.978;8.742;2023-11-21T08:20:41;9.10;;;6.90;;
4595;SDS011;2310;49.978;8.742;2023-11-21T08:24:42;11.80;;;7.40;;
4595;SDS011;2310;49.978;8.742;2023-11-21T08:28:43;10.27;;;6.27;;
4595;SDS011;2310;49.978;8.742;2023-11-21T08:32:45;8.37;;;4.60;;
4595;SDS011;2310;49.978;8.742;2023-11-21T08:36:46;7.40;;;5.30;;
4595;SDS011;2310;49.978;8.742;2023-11-21T08:40:47;9.50;;;5.43;;
4595;SDS011;2310;49.978;8.742;2023-11-21T08:44:49;8.60;;;5.33;;
4595;SDS011;2310;49.978;8.742;2023-11-21T08:48:50;6.83;;;4.37;;
4595;SDS011;2310;49.978;8.742;2023-11-21T08:52:53;12.83;;;6.03;;
4595;SDS011;2310;49.978;8.742;2023-11-21T08:56:55;8.00;;;6.27;;
4595;SDS011;2310;49.978;8.742;2023-11-21T09:00:56;7.90;;;5.87;;
4595;SDS011;2310;49.978;8.742;2023-11-21T09:04:57;8.37;;;5.53;;
4595;SDS011;2310;49.978;8.742;2023-11-21T09:09:00;10.23;;;7.13;;
4595;SDS011;2310;49.978;8.742;2023-11-21T09:13:01;9.07;;;6.87;;
4595;SDS011;2310;49.978;8.742;2023-11-21T09:17:02;11.27;;;8.23;;
4595;SDS011;2310;49.978;8.742;2023-11-21T09:21:04;12.80;;;9.03;;
4595;SDS011;2310;49.978;8.742;2023-11-21T09:25:07;13.20;;;9.53;;
4595;SDS011;2310;49.978;8.742;2023-11-21T09:29:09;13.00;;;9.33;;
4595;SDS011;2310;49.978;8.742;2023-11-21T09:33:10;14.13;;;10.73;;
4595;SDS011;2310;49.978;8.742;2023-11-21T09:37:12;15.10;;;11.93;;
4595;SDS011;2310;49.978;8.742;2023-11-21T09:41:16;13.57;;;10.63;;
4595;SDS011;2310;49.978;8.742;2023-11-21T09:49:29;15.87;;;11.23;;
4595;SDS011;2310;49.978;8.742;2023-11-21T09:53:35;12.13;;;9.97;;
4595;SDS011;2310;49.978;8.742;2023-11-21T09:57:36;14.63;;;10.17;;
4595;SDS011;2310;49.978;8.742;2023-11-21T10:01:37;16.47;;;12.33;;
4595;SDS011;2310;49.978;8.742;2023-11-21T10:05:41;16.70;;;12.03;;
4595;SDS011;2310;49.978;8.742;2023-11-21T10:09:43;12.97;;;9.83;;
4595;SDS011;2310;49.978;8.742;2023-11-21T10:13:45;15.37;;;11.70;;
4595;SDS011;2310;49.978;8.742;2023-11-21T10:17:48;16.83;;;10.70;;
4595;SDS011;2310;49.978;8.742;2023-11-21T10:21:50;13.83;;;9.77;;
4595;SDS011;2310;49.978;8.742;2023-11-21T10:25:52;15.13;;;10.20;;
4595;SDS011;2310;49.978;8.742;2023-11-21T10:29:55;13.47;;;10.30;;
4595;SDS011;2310;49.978;8.742;2023-11-21T10:34:14;14.33;;;10.23;;
4595;SDS011;2310;49.978;8.742;2023-11-21T10:38:17;15.23;;;9.43;;
4595;SDS011;2310;49.978;8.742;2023-11-21T10:42:19;13.40;;;10.40;;
4595;SDS011;2310;49.978;8.742;2023-11-21T10:46:21;11.60;;;7.37;;
4595;SDS011;2310;49.978;8.742;2023-11-21T10:50:24;11.43;;;8.00;;
4595;SDS011;2310;49.978;8.742;2023-11-21T10:54:26;12.90;;;8.47;;
4595;SDS011;2310;49.978;8.742;2023-11-21T10:58:28;16.23;;;8.47;;
4595;SDS011;2310;49.978;8.742;2023-11-21T11:02:30;11.43;;;8.10;;
4595;SDS011;2310;49.978;8.742;2023-11-21T11:06:33;9.40;;;7.37;;
4595;SDS011;2310;49.978;8.742;2023-11-21T11:10:36;11.70;;;7.80;;
4595;SDS011;2310;49.978;8.742;2023-11-21T11:14:40;10.73;;;6.63;;
4595;SDS011;2310;49.978;8.742;2023-11-21T11:18:42;9.73;;;7.30;;
4595;SDS011;2310;49.978;8.742;2023-11-21T11:27:11;14.17;;;7.70;;
4595;SDS011;2310;49.978;8.742;2023-11-21T11:35:48;11.73;;;7.00;;
4595;SDS011;2310;49.978;8.742;2023-11-21T11:40:07;19.40;;;12.13;;
4595;SDS011;2310;49.978;8.742;2023-11-21T11:44:46;13.60;;;11.03;;
4595;SDS011;2310;49.978;8.742;2023-11-21T11:48:15;8.90;;;6.20;;
4595;SDS011;2310;49.978;8.742;2023-11-21T11:56:40;12.30;;;6.47;;
4595;SDS011;2310;49.978;8.742;2023-11-21T12:00:43;7.80;;;6.87;;
4595;SDS011;2310;49.978;8.742;2023-11-21T12:04:47;8.00;;;5.00;;
4595;SDS011;2310;49.978;8.742;2023-11-21T12:08:48;8.93;;;5.97;;
4595;SDS011;2310;49.978;8.742;2023-11-21T12:12:52;8.30;;;5.67;;
4595;SDS011;2310;49.978;8.742;2023-11-21T12:16:56;11.73;;;6.37;;
4595;SDS011;2310;49.978;8.742;2023-11-21T12:20:57;15.87;;;7.20;;
4595;SDS011;2310;49.978;8.742;2023-11-21T12:24:59;9.33;;;5.43;;
4595;SDS011;2310;49.978;8.742;2023-11-21T12:29:02;15.20;;;7.40;;
4595;SDS011;2310;49.978;8.742;2023-11-21T12:33:05;8.80;;;7.07;;
4595;SDS011;2310;49.978;8.742;2023-11-21T12:37:09;13.97;;;9.03;;
4595;SDS011;2310;49.978;8.742;2023-11-21T12:41:11;9.33;;;7.57;;
4595;SDS011;2310;49.978;8.742;2023-11-21T12:49:21;12.57;;;7.57;;
4595;SDS011;2310;49.978;8.742;2023-11-21T12:53:23;11.03;;;8.43;;
4595;SDS011;2310;49.978;8.742;2023-11-21T12:57:27;11.50;;;8.60;;
4595;SDS011;2310;49.978;8.742;2023-11-21T13:01:29;10.60;;;7.00;;
4595;SDS011;2310;49.978;8.742;2023-11-21T13:05:37;12.27;;;7.50;;
4595;SDS011;2310;49.978;8.742;2023-11-21T13:09:39;11.60;;;7.27;;
4595;SDS011;2310;49.978;8.742;2023-11-21T13:13:41;9.97;;;6.70;;
4595;SDS011;2310;49.978;8.742;2023-11-21T13:17:45;9.70;;;6.63;;
4595;SDS011;2310;49.978;8.742;2023-11-21T13:21:46;13.83;;;10.50;;
4595;SDS011;2310;49.978;8.742;2023-11-21T13:25:48;12.30;;;8.80;;
4595;SDS011;2310;49.978;8.742;2023-11-21T13:29:52;12.73;;;8.30;;
4595;SDS011;2310;49.978;8.742;2023-11-21T13:33:55;11.37;;;6.87;;
4595;SDS011;2310;49.978;8.742;2023-11-21T13:38:02;11.13;;;7.20;;
4595;SDS011;2310;49.978;8.742;2023-11-21T13:42:08;11.10;;;6.90;;
4595;SDS011;2310;49.978;8.742;2023-11-21T13:46:11;10.27;;;6.80;;
4595;SDS011;2310;49.978;8.742;2023-11-21T13:50:18;12.17;;;8.70;;
4595;SDS011;2310;49.978;8.742;2023-11-21T13:54:22;10.40;;;7.93;;
4595;SDS011;2310;49.978;8.742;2023-11-21T13:58:25;10.30;;;6.50;;
4595;SDS011;2310;49.978;8.742;2023-11-21T14:02:31;8.63;;;5.53;;
4595;SDS011;2310;49.978;8.742;2023-11-21T14:06:34;10.30;;;7.10;;
4595;SDS011;2310;49.978;8.742;2023-11-21T14:10:38;9.30;;;6.70;;
4595;SDS011;2310;49.978;8.742;2023-11-21T14:14:42;10.57;;;7.00;;
4595;SDS011;2310;49.978;8.742;2023-11-21T14:18:45;10.00;;;7.50;;
4595;SDS011;2310;49.978;8.742;2023-11-21T14:22:54;9.33;;;6.17;;
4595;SDS011;2310;49.978;8.742;2023-11-21T14:26:56;8.17;;;6.70;;
4595;SDS011;2310;49.978;8.742;2023-11-21T14:30:57;9.93;;;6.97;;
4595;SDS011;2310;49.978;8.742;2023-11-21T14:34:59;10.53;;;6.83;;
4595;SDS011;2310;49.978;8.742;2023-11-21T14:39:00;9.40;;;6.60;;
4595;SDS011;2310;49.978;8.742;2023-11-21T14:43:02;14.67;;;9.23;;
4595;SDS011;2310;49.978;8.742;2023-11-21T14:47:07;12.97;;;7.57;;
4595;SDS011;2310;49.978;8.742;2023-11-21T14:51:10;11.97;;;7.83;;
4595;SDS011;2310;49.978;8.742;2023-11-21T14:55:29;11.73;;;6.97;;
4595;SDS011;2310;49.978;8.742;2023-11-21T14:59:34;14.27;;;9.93;;
4595;SDS011;2310;49.978;8.742;2023-11-21T15:03:36;9.00;;;7.03;;
4595;SDS011;2310;49.978;8.742;2023-11-21T15:07:39;8.47;;;6.60;;
4595;SDS011;2310;49.978;8.742;2023-11-21T15:11:41;14.83;;;6.60;;
4595;SDS011;2310;49.978;8.742;2023-11-21T15:15:43;12.43;;;7.80;;
4595;SDS011;2310;49.978;8.742;2023-11-21T15:19:44;8.93;;;6.60;;
4595;SDS011;2310;49.978;8.742;2023-11-21T15:23:46;12.20;;;7.43;;
4595;SDS011;2310;49.978;8.742;2023-11-21T15:27:47;11.73;;;8.50;;
4595;SDS011;2310;49.978;8.742;2023-11-21T15:31:50;10.60;;;7.70;;
4595;SDS011;2310;49.978;8.742;2023-11-21T15:35:54;11.67;;;8.50;;
4595;SDS011;2310;49.978;8.742;2023-11-21T15:39:55;19.30;;;10.23;;
4595;SDS011;2310;49.978;8.742;2023-11-21T15:43:57;17.13;;;9.67;;
4595;SDS011;2310;49.978;8.742;2023-11-21T15:47:58;11.00;;;8.30;;
4595;SDS011;2310;49.978;8.742;2023-11-21T15:52:02;12.97;;;9.03;;
4595;SDS011;2310;49.978;8.742;2023-11-21T15:56:04;14.80;;;10.37;;
4595;SDS011;2310;49.978;8.742;2023-11-21T16:00:06;13.30;;;9.20;;
4595;SDS011;2310;49.978;8.742;2023-11-21T16:04:10;10.63;;;8.60;;
4595;SDS011;2310;49.978;8.742;2023-11-21T16:08:12;10.87;;;8.50;;
4595;SDS011;2310;49.978;8.742;2023-11-21T16:12:14;13.13;;;10.43;;
4595;SDS011;2310;49.978;8.742;2023-11-21T16:16:19;14.23;;;9.63;;
4595;SDS011;2310;49.978;8.742;2023-11-21T16:20:20;15.80;;;10.77;;
4595;SDS011;2310;49.978;8.742;2023-11-21T16:24:22;16.57;;;12.40;;
4595;SDS011;2310;49.978;8.742;2023-11-21T16:28:24;13.50;;;10.50;;
4595;SDS011;2310;49.978;8.742;2023-11-21T16:32:26;16.83;;;10.60;;
4595;SDS011;2310;49.978;8.742;2023-11-21T16:36:29;17.67;;;14.03;;
4595;SDS011;2310;49.978;8.742;2023-11-21T16:40:30;15.63;;;12.80;;
4595;SDS011;2310;49.978;8.742;2023-11-21T16:44:32;16.90;;;14.00;;
4595;SDS011;2310;49.978;8.742;2023-11-21T16:48:33;17.23;;;14.20;;
4595;SDS011;2310;49.978;8.742;2023-11-21T16:52:34;17.50;;;13.10;;
4595;SDS011;2310;49.978;8.742;2023-11-21T16:56:36;16.70;;;14.10;;
4595;SDS011;2310;49.978;8.742;2023-11-21T17:00:38;17.70;;;12.57;;
4595;SDS011;2310;49.978;8.742;2023-11-21T17:04:39;15.43;;;11.10;;
4595;SDS011;2310;49.978;8.742;2023-11-21T17:08:42;16.97;;;11.93;;
4595;SDS011;2310;49.978;8.742;2023-11-21T17:12:45;16.70;;;12.03;;
4595;SDS011;2310;49.978;8.742;2023-11-21T17:16:46;13.30;;;10.80;;
4595;SDS011;2310;49.978;8.742;2023-11-21T17:20:50;14.40;;;11.33;;
4595;SDS011;2310;49.978;8.742;2023-11-21T17:24:52;16.97;;;13.50;;
4595;SDS011;2310;49.978;8.742;2023-11-21T17:28:53;17.53;;;13.30;;
4595;SDS011;2310;49.978;8.742;2023-11-21T17:32:55;35.30;;;31.43;;
4595;SDS011;2310;49.978;8.742;2023-11-21T17:36:58;19.30;;;14.23;;
4595;SDS011;2310;49.978;8.742;2023-11-21T17:41:00;21.00;;;12.40;;
4595;SDS011;2310;49.978;8.742;2023-11-21T17:45:02;17.60;;;11.53;;
4595;SDS011;2310;49.978;8.742;2023-11-21T17:49:03;13.20;;;10.70;;
4595;SDS011;2310;49.978;8.742;2023-11-21T17:53:05;18.73;;;12.40;;
4595;SDS011;2310;49.978;8.742;2023-11-21T17:57:06;14.80;;;11.47;;
4595;SDS011;2310;49.978;8.742;2023-11-21T18:01:09;20.00;;;13.60;;
4595;SDS011;2310;49.978;8.742;2023-11-21T18:05:10;25.57;;;13.83;;
4595;SDS011;2310;49.978;8.742;2023-11-21T18:09:13;15.33;;;12.53;;
4595;SDS011;2310;49.978;8.742;2023-11-21T18:13:16;16.27;;;10.70;;
4595;SDS011;2310;49.978;8.742;2023-11-21T18:17:17;15.37;;;10.90;;
4595;SDS011;2310;49.978;8.742;2023-11-21T18:21:20;13.40;;;9.77;;
4595;SDS011;2310;49.978;8.742;2023-11-21T18:25:21;14.97;;;10.70;;
4595;SDS011;2310;49.978;8.742;2023-11-21T18:29:22;13.87;;;10.37;;
4595;SDS011;2310;49.978;8.742;2023-11-21T18:33:24;12.57;;;9.30;;
4595;SDS011;2310;49.978;8.742;2023-11-21T18:37:25;12.60;;;10.00;;
4595;SDS011;2310;49.978;8.742;2023-11-21T18:41:26;14.33;;;9.80;;
4595;SDS011;2310;49.978;8.742;2023-11-21T18:45:28;14.07;;;9.70;;
4595;SDS011;2310;49.978;8.742;2023-11-21T18:49:29;15.20;;;10.20;;
4595;SDS011;2310;49.978;8.742;2023-11-21T18:53:31;14.47;;;9.67;;
4595;SDS011;2310;49.978;8.742;2023-11-21T18:57:34;14.17;;;10.60;;
4595;SDS011;2310;49.978;8.742;2023-11-21T19:01:35;13.57;;;10.33;;
4595;SDS011;2310;49.978;8.742;2023-11-21T19:05:37;14.17;;;9.37;;
4595;SDS011;2310;49.978;8.742;2023-11-21T19:09:38;11.17;;;7.40;;
4595;SDS011;2310;49.978;8.742;2023-11-21T19:13:40;9.60;;;7.53;;
4595;SDS011;2310;49.978;8.742;2023-11-21T19:17:42;7.23;;;5.40;;
4595;SDS011;2310;49.978;8.742;2023-11-21T19:21:43;6.70;;;5.37;;
4595;SDS011;2310;49.978;8.742;2023-11-21T19:25:45;7.10;;;5.60;;
4595;SDS011;2310;49.978;8.742;2023-11-21T19:29:46;9.53;;;6.77;;
4595;SDS011;2310;49.978;8.742;2023-11-21T19:33:49;8.53;;;6.40;;
4595;SDS011;2310;49.978;8.742;2023-11-21T19:37:52;9.33;;;7.00;;
4595;SDS011;2310;49.978;8.742;2023-11-21T19:41:53;12.10;;;8.60;;
4595;SDS011;2310;49.978;8.742;2023-11-21T19:45:54;11.93;;;8.63;;
4595;SDS011;2310;49.978;8.742;2023-11-21T19:50:00;13.13;;;8.30;;
4595;SDS011;2310;49.978;8.742;2023-11-21T19:54:01;11.33;;;9.27;;
4595;SDS011;2310;49.978;8.742;2023-11-21T19:58:05;11.23;;;9.30;;
4595;SDS011;2310;49.978;8.742;2023-11-21T20:02:07;14.30;;;9.80;;
4595;SDS011;2310;49.978;8.742;2023-11-21T20:06:09;12.00;;;8.50;;
4595;SDS011;2310;49.978;8.742;2023-11-21T20:10:10;17.73;;;11.30;;
4595;SDS011;2310;49.978;8.742;2023-11-21T20:14:12;14.40;;;9.07;;
4595;SDS011;2310;49.978;8.742;2023-11-21T20:18:13;12.10;;;9.20;;
4595;SDS011;2310;49.978;8.742;2023-11-21T20:22:15;12.70;;;9.40;;
4595;SDS011;2310;49.978;8.742;2023-11-21T20:26:21;11.70;;;9.07;;
4595;SDS011;2310;49.978;8.742;2023-11-21T20:30:23;11.70;;;8.37;;
4595;SDS011;2310;49.978;8.742;2023-11-21T20:34:28;10.73;;;8.20;;
4595;SDS011;2310;49.978;8.742;2023-11-21T20:38:30;11.83;;;8.50;;
4595;SDS011;2310;49.978;8.742;2023-11-21T20:42:31;13.47;;;9.53;;
4595;SDS011;2310;49.978;8.742;2023-11-21T20:46:32;11.40;;;9.00;;
4595;SDS011;2310;49.978;8.742;2023-11-21T20:50:34;13.60;;;10.10;;
4595;SDS011;2310;49.978;8.742;2023-11-21T20:54:35;14.40;;;9.63;;
4595;SDS011;2310;49.978;8.742;2023-11-21T20:58:37;11.30;;;8.10;;
4595;SDS011;2310;49.978;8.742;2023-11-21T21:02:40;9.83;;;7.00;;
4595;SDS011;2310;49.978;8.742;2023-11-21T21:06:42;9.67;;;7.20;;
4595;SDS011;2310;49.978;8.742;2023-11-21T21:10:43;10.17;;;6.13;;
4595;SDS011;2310;49.978;8.742;2023-11-21T21:14:45;10.97;;;7.63;;
4595;SDS011;2310;49.978;8.742;2023-11-21T21:18:46;9.23;;;5.70;;
4595;SDS011;2310;49.978;8.742;2023-11-21T21:22:47;8.17;;;6.37;;
4595;SDS011;2310;49.978;8.742;2023-11-21T21:26:48;8.63;;;5.10;;
4595;SDS011;2310;49.978;8.742;2023-11-21T21:30:50;9.30;;;5.57;;
4595;SDS011;2310;49.978;8.742;2023-11-21T21:34:51;9.03;;;5.33;;
4595;SDS011;2310;49.978;8.742;2023-11-21T21:38:53;7.07;;;4.83;;
4595;SDS011;2310;49.978;8.742;2023-11-21T21:42:56;7.67;;;4.50;;
4595;SDS011;2310;49.978;8.742;2023-11-21T21:46:59;8.40;;;5.60;;
4595;SDS011;2310;49.978;8.742;2023-11-21T21:51:00;8.40;;;5.10;;
4595;SDS011;2310;49.978;8.742;2023-11-21T21:55:02;9.73;;;7.17;;
4595;SDS011;2310;49.978;8.742;2023-11-21T21:59:04;7.43;;;5.30;;
4595;SDS011;2310;49.978;8.742;2023-11-21T22:03:07;7.10;;;4.90;;
4595;SDS011;2310;49.978;8.742;2023-11-21T22:07:10;11.07;;;5.80;;
4595;SDS011;2310;49.978;8.742;2023-11-21T22:11:11;7.77;;;5.33;;
4595;SDS011;2310;49.978;8.742;2023-11-21T22:15:12;6.90;;;4.03;;
4595;SDS011;2310;49.978;8.742;2023-11-21T22:19:14;6.67;;;4.50;;
4595;SDS011;2310;49.978;8.742;2023-11-21T22:23:15;6.97;;;5.27;;
4595;SDS011;2310;49.978;8.742;2023-11-21T22:27:17;7.37;;;4.60;;
4595;SDS011;2310;49.978;8.742;2023-11-21T22:31:19;10.40;;;5.43;;
4595;SDS011;2310;49.978;8.742;2023-11-21T22:35:21;7.07;;;5.00;;
4595;SDS011;2310;49.978;8.742;2023-11-21T22:39:23;9.20;;;5.30;;
4595;SDS011;2310;49.978;8.742;2023-11-21T22:43:24;7.87;;;5.47;;
4595;SDS011;2310;49.978;8.742;2023-11-21T22:47:26;10.13;;;5.50;;
4595;SDS011;2310;49.978;8.742;2023-11-21T22:51:27;7.03;;;4.90;;
4595;SDS011;2310;49.978;8.742;2023-11-21T22:55:29;7.87;;;4.70;;
4595;SDS011;2310;49.978;8.742;2023-11-21T22:59:30;8.03;;;5.10;;
4595;SDS011;2310;49.978;8.742;2023-11-21T23:03:31;6.63;;;5.47;;
4595;SDS011;2310;49.978;8.742;2023-11-21T23:07:33;8.03;;;4.80;;
4595;SDS011;2310;49.978;8.742;2023-11-21T23:11:34;6.00;;;3.70;;
4595;SDS011;2310;49.978;8.742;2023-11-21T23:15:36;5.27;;;3.17;;
4595;SDS011;2310;49.978;8.742;2023-11-21T23:19:37;5.50;;;3.23;;
4595;SDS011;2310;49.978;8.742;2023-11-21T23:23:41;4.80;;;2.93;;
4595;SDS011;2310;49.978;8.742;2023-11-21T23:27:43;5.53;;;3.23;;
4595;SDS011;2310;49.978;8.742;2023-11-21T23:31:45;5.27;;;2.90;;
4595;SDS011;2310;49.978;8.742;2023-11-21T23:35:46;5.30;;;2.77;;
4595;SDS011;2310;49.978;8.742;2023-11-21T23:39:48;5.47;;;3.23;;
4595;SDS011;2310;49.978;8.742;2023-11-21T23:43:49;6.47;;;2.97;;
4595;SDS011;2310;49.978;8.742;2023-11-21T23:47:51;5.17;;;3.20;;
4595;SDS011;2310;49.978;8.742;2023-11-21T23:51:53;4.70;;;2.50;;
4595;SDS011;2310;49.978;8.742;2023-11-21T23:55:54;4.77;;;2.43;;
4595;SDS011;2310;49.978;8.742;2023-11-21T23:59:55;5.10;;;2.70;;
